sim
Sign-in with your pilot id or email,
or register
Callsign
Passwort

Schedule Details

Flight Number: DLH1635
Departure: Wroclaw Copernicus Airport (EPWR) at 05:15
Arrival: Munich Airport (EDDM) at 06:20
Route: Lufthansa Passenger Schedule. Enter filed route here before submitting Pirep.

Weather Information
Getting current METAR information for EPWR 242200Z 10005KT CAVOK 15/12 Q1005
Getting current METAR information for EDDM 242220Z 28011KT 250V310 9999 -RA SCT025 BKN045 15/12 Q1004 TEMPO RA

Schedule Frequency

Route Map